createdAt,value
2022-12-08T00:01:20.957Z,57.97
2022-12-08T00:03:48.570Z,66.43
2022-12-08T00:06:44.819Z,52.70
2022-12-08T00:09:22.664Z,55.17
2022-12-08T00:11:56.101Z,56.75
2022-12-08T00:14:25.180Z,54.10
2022-12-08T00:16:52.408Z,57.47
2022-12-08T00:19:19.554Z,53.55
2022-12-08T00:21:46.720Z,53.58
2022-12-08T00:24:13.706Z,57.65
2022-12-08T00:26:40.763Z,63.08
2022-12-08T00:29:10.929Z,64.27
2022-12-08T00:31:41.536Z,59.50
2022-12-08T00:34:08.625Z,56.58
2022-12-08T00:36:35.594Z,53.67
2022-12-08T00:39:02.868Z,57.35
2022-12-08T00:41:48.266Z,47.30
2022-12-08T00:44:18.987Z,45.63
2022-12-08T00:46:46.831Z,40.85
2022-12-08T00:49:14.167Z,41.28
2022-12-08T00:51:41.739Z,45.45
2022-12-08T00:54:09.046Z,32.63
2022-12-08T00:56:36.025Z,44.05
2022-12-08T00:59:04.675Z,53.92
2022-12-08T01:01:32.219Z,61.97
2022-12-08T01:04:06.192Z,50.33
2022-12-08T01:06:35.608Z,44.13
2022-12-08T01:09:08.188Z,46.83
2022-12-08T01:11:36.307Z,43.55
2022-12-08T01:14:03.315Z,46.30
2022-12-08T01:16:33.541Z,44.92
2022-12-08T01:19:01.198Z,42.67
2022-12-08T01:21:28.427Z,38.20
2022-12-08T01:23:56.039Z,34.60
2022-12-08T01:26:23.165Z,38.80
2022-12-08T01:28:50.748Z,36.20
2022-12-08T01:31:21.923Z,35.07
2022-12-08T01:33:49.370Z,36.17
2022-12-08T01:36:25.851Z,38.50
2022-12-08T01:38:54.266Z,36.35
2022-12-08T01:41:24.341Z,33.35
2022-12-08T01:44:01.814Z,34.50
2022-12-08T01:46:31.292Z,35.45
2022-12-08T01:49:12.408Z,39.53
2022-12-08T01:52:21.939Z,30.40
2022-12-08T01:54:53.909Z,33.25
2022-12-08T01:57:29.578Z,37.47
2022-12-08T02:00:08.754Z,34.35
2022-12-08T02:02:53.932Z,33.03
2022-12-08T02:05:32.037Z,37.45
2022-12-08T02:08:01.488Z,35.13
2022-12-08T02:10:30.643Z,31.03
2022-12-08T02:12:58.909Z,36.30
2022-12-08T02:15:54.731Z,30.52
2022-12-08T02:18:34.557Z,31.75
2022-12-08T02:21:29.293Z,37.00
2022-12-08T02:24:18.071Z,37.83
2022-12-08T02:27:19.034Z,29.17
2022-12-08T02:29:58.233Z,34.88
2022-12-08T02:32:46.405Z,34.92
2022-12-08T02:35:34.213Z,30.02
2022-12-08T02:38:08.549Z,38.90
2022-12-08T02:41:03.014Z,37.65
2022-12-08T02:43:38.273Z,37.17
2022-12-08T02:46:22.726Z,36.28
2022-12-08T02:48:51.569Z,36.90
2022-12-08T02:51:19.845Z,37.87
2022-12-08T02:53:47.187Z,40.47
2022-12-08T02:57:00.438Z,38.15
2022-12-08T03:00:02.175Z,34.70
2022-12-08T03:02:32.468Z,36.95
2022-12-08T03:05:06.679Z,33.67
2022-12-08T03:07:47.237Z,36.20
2022-12-08T03:10:25.793Z,33.60
2022-12-08T03:13:01.183Z,39.88
2022-12-08T03:15:31.032Z,33.35
2022-12-08T03:17:59.079Z,31.00
2022-12-08T03:20:30.050Z,33.20
2022-12-08T03:23:00.012Z,30.35
2022-12-08T03:25:32.314Z,27.87
2022-12-08T03:27:59.754Z,29.52
2022-12-08T03:30:30.816Z,30.73
2022-12-08T03:33:32.065Z,23.90
2022-12-08T03:36:01.840Z,30.58
2022-12-08T03:38:38.141Z,27.62
2022-12-08T03:41:20.241Z,29.98
2022-12-08T03:43:51.565Z,27.90
2022-12-08T03:48:47.117Z,33.22
2022-12-08T03:51:14.869Z,36.33
2022-12-08T03:53:42.047Z,29.63
2022-12-08T03:56:15.436Z,33.90
2022-12-08T03:58:43.806Z,28.90
2022-12-08T04:01:11.239Z,29.52
2022-12-08T04:03:38.217Z,30.42
2022-12-08T04:06:05.565Z,30.50
2022-12-08T04:08:32.513Z,29.17
2022-12-08T04:10:59.388Z,39.38
2022-12-08T04:13:26.318Z,52.53
2022-12-08T04:15:53.163Z,43.80
2022-12-08T04:18:20.150Z,48.75
2022-12-08T04:20:46.999Z,48.37
2022-12-08T04:23:13.973Z,42.00
2022-12-08T04:25:41.057Z,43.15
2022-12-08T04:28:07.972Z,36.17
2022-12-08T04:30:35.039Z,40.03
2022-12-08T04:33:01.999Z,39.53
2022-12-08T04:35:28.901Z,33.45
2022-12-08T04:37:55.839Z,35.33
2022-12-08T04:40:22.932Z,29.10
2022-12-08T04:42:49.889Z,31.90
2022-12-08T04:45:16.829Z,38.63
2022-12-08T04:47:43.741Z,35.47
2022-12-08T04:50:10.816Z,32.75
2022-12-08T04:52:37.728Z,36.78
2022-12-08T04:55:04.973Z,35.10
2022-12-08T04:57:31.819Z,34.50
2022-12-08T04:59:59.089Z,34.05
2022-12-08T05:02:26.331Z,31.95
2022-12-08T05:04:53.258Z,32.95
2022-12-08T05:07:20.118Z,36.97
2022-12-08T05:09:47.004Z,37.70
2022-12-08T05:12:13.898Z,32.72
2022-12-08T05:14:40.731Z,31.05
2022-12-08T05:17:09.765Z,32.08
2022-12-08T05:19:42.048Z,28.70
2022-12-08T05:22:09.037Z,28.23
2022-12-08T05:24:35.933Z,25.58
2022-12-08T05:27:03.047Z,28.52
2022-12-08T05:29:30.070Z,24.12
2022-12-08T05:31:56.923Z,24.55
2022-12-08T05:34:23.885Z,26.93
2022-12-08T05:36:50.832Z,27.13
2022-12-08T05:39:17.678Z,26.40
2022-12-08T05:41:44.655Z,29.05
2022-12-08T05:44:11.427Z,28.95
2022-12-08T05:46:38.353Z,27.37
2022-12-08T05:49:05.428Z,26.33
2022-12-08T05:51:32.386Z,26.65
2022-12-08T05:53:59.362Z,25.90
2022-12-08T05:56:26.239Z,24.85
2022-12-08T05:58:53.194Z,29.97
2022-12-08T06:01:19.929Z,29.42
2022-12-08T06:03:46.792Z,24.73
2022-12-08T06:06:13.691Z,27.05
2022-12-08T06:08:41.046Z,23.30
2022-12-08T06:11:08.620Z,24.90
2022-12-08T06:13:35.732Z,25.27
2022-12-08T06:16:07.001Z,23.27
2022-12-08T06:18:34.044Z,25.92
2022-12-08T06:21:10.227Z,25.23
2022-12-08T06:23:37.572Z,25.73
2022-12-08T06:26:15.749Z,25.33
2022-12-08T06:28:44.131Z,23.30
2022-12-08T06:31:17.351Z,24.63
2022-12-08T06:33:45.036Z,28.67
2022-12-08T06:36:13.708Z,29.20
2022-12-08T06:38:43.655Z,29.15
2022-12-08T06:41:12.164Z,26.42
2022-12-08T06:43:39.257Z,37.13
2022-12-08T06:46:09.364Z,29.17
2022-12-08T06:48:36.869Z,28.23
2022-12-08T06:51:11.568Z,33.38
2022-12-08T06:53:39.141Z,29.92
2022-12-08T06:56:06.313Z,30.55
2022-12-08T06:58:34.028Z,29.45
2022-12-08T07:01:09.164Z,32.07
2022-12-08T07:03:37.941Z,39.22
2022-12-08T07:06:05.491Z,40.38
2022-12-08T07:08:33.866Z,39.10
2022-12-08T07:11:06.877Z,39.58
2022-12-08T07:13:33.729Z,39.80
2022-12-08T07:16:00.529Z,41.90
2022-12-08T07:18:27.299Z,37.30
2022-12-08T07:20:54.104Z,34.88
2022-12-08T07:23:21.068Z,36.78
2022-12-08T07:25:47.906Z,34.77
2022-12-08T07:28:14.773Z,35.70
2022-12-08T07:30:41.682Z,33.60
2022-12-08T07:33:08.564Z,31.52
2022-12-08T07:35:35.670Z,31.60
2022-12-08T07:38:02.805Z,28.33
2022-12-08T07:40:29.802Z,34.38
2022-12-08T07:42:56.729Z,31.95
2022-12-08T07:45:29.792Z,38.22
2022-12-08T07:47:58.222Z,102.25
2022-12-08T07:50:25.107Z,88.10
2022-12-08T07:52:51.888Z,51.58
2022-12-08T07:55:18.784Z,34.75
2022-12-08T07:57:45.583Z,30.40
2022-12-08T08:00:13.137Z,27.87
2022-12-08T08:02:42.832Z,33.03
2022-12-08T08:05:10.465Z,39.65
2022-12-08T08:07:37.428Z,36.55
2022-12-08T08:10:05.674Z,33.72
2022-12-08T08:12:33.152Z,41.20
2022-12-08T08:15:01.375Z,39.03
2022-12-08T08:17:29.614Z,36.22
2022-12-08T08:19:56.865Z,34.28
2022-12-08T08:22:25.193Z,28.70
2022-12-08T08:24:52.240Z,27.77
2022-12-08T08:27:19.545Z,27.73
2022-12-08T08:29:46.705Z,28.17
2022-12-08T08:32:13.558Z,30.90
2022-12-08T08:34:40.391Z,30.85
2022-12-08T08:37:07.299Z,32.03
2022-12-08T08:39:34.295Z,32.97
2022-12-08T08:42:01.086Z,31.23
2022-12-08T08:44:27.948Z,29.98
2022-12-08T08:46:54.820Z,33.45
2022-12-08T08:49:21.774Z,29.63
2022-12-08T08:51:48.660Z,30.60
2022-12-08T08:54:15.842Z,36.45
2022-12-08T08:56:42.706Z,33.58
2022-12-08T08:59:09.750Z,31.60
2022-12-08T09:01:36.939Z,32.60
2022-12-08T09:04:04.526Z,29.60
2022-12-08T09:06:31.586Z,31.73
2022-12-08T09:08:58.527Z,32.78
2022-12-08T09:11:25.781Z,32.47
2022-12-08T09:13:54.182Z,34.35
2022-12-08T09:16:21.453Z,32.87
2022-12-08T09:18:49.598Z,32.50
2022-12-08T09:21:23.246Z,29.73
2022-12-08T09:23:51.796Z,31.37
2022-12-08T09:26:22.369Z,28.48
2022-12-08T09:28:51.227Z,28.00
2022-12-08T09:31:19.932Z,29.20
2022-12-08T09:33:47.725Z,23.98
2022-12-08T09:36:14.891Z,23.08
2022-12-08T09:38:42.641Z,23.15
2022-12-08T09:41:37.604Z,27.50
2022-12-08T09:44:20.277Z,22.62
2022-12-08T09:46:51.304Z,22.73
2022-12-08T09:49:22.417Z,21.55
2022-12-08T09:51:53.119Z,24.05
2022-12-08T09:54:25.690Z,23.67
2022-12-08T09:56:59.551Z,22.40
2022-12-08T09:59:31.788Z,21.30
2022-12-08T10:02:00.833Z,23.30
2022-12-08T10:04:38.476Z,24.33
2022-12-08T10:07:20.735Z,22.53
2022-12-08T10:09:59.896Z,25.52
2022-12-08T10:13:16.280Z,20.40
2022-12-08T10:15:51.907Z,21.23
2022-12-08T10:18:34.124Z,20.48
2022-12-08T10:21:22.333Z,21.00
2022-12-08T10:23:54.521Z,21.37
2022-12-08T10:26:22.572Z,24.37
2022-12-08T10:28:49.628Z,23.73
2022-12-08T10:31:24.107Z,21.80
2022-12-08T10:34:05.828Z,24.80
2022-12-08T10:36:51.013Z,21.10
2022-12-08T10:39:34.725Z,22.40
2022-12-08T10:42:07.018Z,21.50
2022-12-08T10:44:40.311Z,21.60
2022-12-08T10:47:13.778Z,23.40
2022-12-08T10:49:41.440Z,23.73
2022-12-08T10:52:24.500Z,24.77
2022-12-08T10:54:54.577Z,22.37
2022-12-08T10:57:23.751Z,24.23
2022-12-08T10:59:58.367Z,22.83
2022-12-08T11:02:25.324Z,20.25
2022-12-08T11:05:01.394Z,18.52
2022-12-08T11:07:28.688Z,21.75
2022-12-08T11:09:58.326Z,18.25
2022-12-08T11:12:29.499Z,19.43
2022-12-08T11:15:03.370Z,18.10
2022-12-08T11:17:39.421Z,19.48
2022-12-08T11:20:09.730Z,17.30
2022-12-08T11:22:42.780Z,20.95
2022-12-08T11:25:12.433Z,20.50
2022-12-08T11:27:44.701Z,21.55
2022-12-08T11:30:18.535Z,19.58
2022-12-08T11:32:48.821Z,18.42
2022-12-08T11:35:26.979Z,20.40
2022-12-08T11:38:13.483Z,20.17
2022-12-08T11:40:44.860Z,17.17
2022-12-08T11:43:36.111Z,16.62
2022-12-08T11:46:11.136Z,18.10
2022-12-08T11:49:04.370Z,17.12
2022-12-08T11:51:34.687Z,16.33
2022-12-08T11:54:24.125Z,17.75
2022-12-08T11:56:58.756Z,19.17
2022-12-08T11:59:38.124Z,19.45
2022-12-08T12:02:06.349Z,19.20
2022-12-08T12:04:43.677Z,19.83
2022-12-08T12:07:32.414Z,20.45
2022-12-08T12:10:24.460Z,20.67
2022-12-08T12:12:51.187Z,19.77
2022-12-08T12:15:37.040Z,18.15
2022-12-08T12:18:22.208Z,19.23
2022-12-08T12:21:11.624Z,19.80
2022-12-08T12:24:01.590Z,20.65
2022-12-08T12:26:31.195Z,15.85
2022-12-08T12:29:03.525Z,17.33
2022-12-08T12:31:35.561Z,29.40
2022-12-08T12:34:15.453Z,19.90
2022-12-08T12:36:52.835Z,19.40
2022-12-08T12:39:25.178Z,19.10
2022-12-08T12:42:03.404Z,18.05
2022-12-08T12:44:32.841Z,16.80
2022-12-08T12:47:02.159Z,17.33
2022-12-08T12:49:41.122Z,16.45
2022-12-08T12:52:16.743Z,17.92
2022-12-08T12:54:49.465Z,17.40
2022-12-08T12:57:23.800Z,16.87
2022-12-08T12:59:55.922Z,17.20
2022-12-08T13:02:26.216Z,16.83
2022-12-08T13:05:01.061Z,20.00
2022-12-08T13:07:32.589Z,17.77
2022-12-08T13:10:11.227Z,19.03
2022-12-08T13:12:38.202Z,19.10
2022-12-08T13:15:07.191Z,18.25
2022-12-08T13:17:37.345Z,15.98
2022-12-08T13:20:07.295Z,16.25
2022-12-08T13:23:25.135Z,20.63
2022-12-08T13:25:53.213Z,18.27
2022-12-08T13:28:26.211Z,19.52
2022-12-08T13:30:56.709Z,20.10
2022-12-08T13:33:39.468Z,24.27
2022-12-08T13:36:25.678Z,25.23
2022-12-08T13:38:58.832Z,24.87
2022-12-08T13:41:38.665Z,24.25
2022-12-08T13:58:44.506Z,21.58
2022-12-08T14:01:20.393Z,21.05
2022-12-08T14:06:46.718Z,23.70
2022-12-08T14:09:22.548Z,24.58
2022-12-08T14:11:55.776Z,24.12
2022-12-08T14:15:01.282Z,24.15
2022-12-08T14:17:21.835Z,23.00
2022-12-08T14:20:06.685Z,23.05
2022-12-08T14:22:38.647Z,21.95
2022-12-08T14:25:08.641Z,23.45
2022-12-08T14:27:37.794Z,21.77
2022-12-08T14:30:16.820Z,24.77
2022-12-08T14:32:45.086Z,28.83
2022-12-08T14:35:24.000Z,29.70
2022-12-08T14:37:55.596Z,31.17
2022-12-08T14:40:34.752Z,32.90
2022-12-08T14:43:07.566Z,31.17
2022-12-08T14:45:40.604Z,29.55
2022-12-08T14:48:38.481Z,27.90
2022-12-08T14:51:20.902Z,27.13
2022-12-08T14:53:58.909Z,30.50
2022-12-08T14:56:41.201Z,28.23
2022-12-08T14:59:15.446Z,28.70
2022-12-08T15:01:43.750Z,35.40
2022-12-08T15:04:15.033Z,32.70
2022-12-08T15:06:54.480Z,26.52
2022-12-08T15:09:36.691Z,25.10
2022-12-08T15:12:15.956Z,27.67
2022-12-08T15:15:18.367Z,24.12
2022-12-08T15:17:50.312Z,25.35
2022-12-08T15:20:39.513Z,24.77
2022-12-08T15:23:17.765Z,23.47
2022-12-08T15:25:44.800Z,24.40
2022-12-08T15:28:17.675Z,26.37
2022-12-08T15:30:44.637Z,24.95
2022-12-08T15:33:11.506Z,23.30
2022-12-08T15:35:40.869Z,19.93
2022-12-08T15:38:26.069Z,24.08
2022-12-08T15:40:54.493Z,23.60
2022-12-08T15:43:22.253Z,21.77
2022-12-08T15:45:58.509Z,25.15
2022-12-08T15:48:28.888Z,25.80
2022-12-08T15:50:56.794Z,25.08
2022-12-08T15:53:23.746Z,28.02
2022-12-08T15:56:19.016Z,31.48
2022-12-08T15:58:53.421Z,34.85
2022-12-08T16:01:21.811Z,37.37
2022-12-08T16:09:49.389Z,28.42
2022-12-08T16:15:51.694Z,27.50
2022-12-08T16:18:26.409Z,28.95
2022-12-08T16:23:43.732Z,30.05
2022-12-08T16:29:02.784Z,26.97
2022-12-08T16:31:29.671Z,38.15
2022-12-08T16:33:56.953Z,39.08
2022-12-08T16:36:23.828Z,35.53
2022-12-08T16:38:51.333Z,37.83
2022-12-08T16:41:36.796Z,35.17
2022-12-08T16:44:06.095Z,27.25
2022-12-08T16:46:33.928Z,23.85
2022-12-08T16:49:00.960Z,24.37
2022-12-08T16:51:27.950Z,27.90
2022-12-08T16:53:57.051Z,26.50
2022-12-08T16:56:29.012Z,24.30
2022-12-08T16:58:59.499Z,24.75
2022-12-08T17:01:26.890Z,27.13
2022-12-08T17:04:29.133Z,26.05
2022-12-08T17:06:41.094Z,21.93
2022-12-08T17:09:08.119Z,23.35
2022-12-08T17:11:40.769Z,24.80
2022-12-08T17:14:10.389Z,29.25
2022-12-08T17:16:37.509Z,28.70
2022-12-08T17:19:04.448Z,26.33
2022-12-08T17:21:32.255Z,29.48
2022-12-08T17:23:59.243Z,28.12
2022-12-08T17:26:26.154Z,28.62
2022-12-08T17:29:01.574Z,29.37
2022-12-08T17:31:32.056Z,28.97
2022-12-08T17:34:01.538Z,29.50
2022-12-08T17:36:28.962Z,30.55
2022-12-08T17:38:58.308Z,32.05
2022-12-08T17:41:27.730Z,29.63
2022-12-08T17:43:55.428Z,35.20
2022-12-08T17:46:24.430Z,30.83
2022-12-08T17:48:52.195Z,32.95
2022-12-08T17:51:19.939Z,34.45
2022-12-08T17:53:46.909Z,31.85
2022-12-08T17:56:21.330Z,33.17
2022-12-08T17:58:54.223Z,32.55
2022-12-08T18:01:23.071Z,32.80
2022-12-08T18:03:50.651Z,29.05
2022-12-08T18:06:17.884Z,35.47
2022-12-08T18:08:45.625Z,37.93
2022-12-08T18:11:19.170Z,36.47
2022-12-08T18:13:48.501Z,43.55
2022-12-08T18:16:16.644Z,36.63
2022-12-08T18:18:44.347Z,34.40
2022-12-08T18:21:11.349Z,33.83
2022-12-08T18:23:40.072Z,34.58
2022-12-08T18:26:09.451Z,33.03
2022-12-08T18:28:38.145Z,34.85
2022-12-08T18:31:13.983Z,28.02
2022-12-08T18:33:43.389Z,28.90
2022-12-08T18:36:17.261Z,28.90
2022-12-08T18:38:45.403Z,31.45
2022-12-08T18:41:15.103Z,31.17
2022-12-08T18:43:42.822Z,35.92
2022-12-08T18:46:13.517Z,33.30
2022-12-08T18:48:46.312Z,38.65
2022-12-08T18:51:18.193Z,35.80
2022-12-08T18:53:46.861Z,37.28
2022-12-08T18:56:23.802Z,33.58
2022-12-08T18:58:51.240Z,31.13
2022-12-08T19:01:20.527Z,31.00
2022-12-08T19:04:05.116Z,30.23
2022-12-08T19:06:39.333Z,25.12
2022-12-08T19:09:09.253Z,29.40
2022-12-08T19:11:36.800Z,27.40
2022-12-08T19:14:07.897Z,30.27
2022-12-08T19:16:39.004Z,28.10
2022-12-08T19:19:06.717Z,27.70
2022-12-08T19:21:34.761Z,31.35
2022-12-08T19:24:02.501Z,25.07
2022-12-08T19:26:30.007Z,24.55
2022-12-08T19:28:58.549Z,21.10
2022-12-08T19:31:26.541Z,24.23
2022-12-08T19:33:54.478Z,23.87
2022-12-08T19:36:23.307Z,33.13
2022-12-08T19:39:12.914Z,52.90
2022-12-08T19:41:58.714Z,56.47
2022-12-08T19:44:35.062Z,51.50
2022-12-08T19:47:02.935Z,40.60
2022-12-08T19:49:31.075Z,39.17
2022-12-08T19:51:59.143Z,36.28
2022-12-08T19:54:27.200Z,33.85
2022-12-08T19:56:54.443Z,30.73
2022-12-08T19:59:22.801Z,34.78
2022-12-08T20:01:51.710Z,31.57
2022-12-08T20:04:19.998Z,38.83
2022-12-08T20:06:48.232Z,34.95
2022-12-08T20:09:16.270Z,33.05
2022-12-08T20:11:47.194Z,35.50
2022-12-08T20:14:14.979Z,27.73
2022-12-08T20:16:43.804Z,27.02
2022-12-08T20:19:11.814Z,30.62
2022-12-08T20:21:40.225Z,20.20
2022-12-08T20:24:07.821Z,20.98
2022-12-08T20:26:36.076Z,19.43
2022-12-08T20:29:05.085Z,23.30
2022-12-08T20:31:34.285Z,19.35
2022-12-08T20:34:01.748Z,20.42
2022-12-08T20:36:29.750Z,19.73
2022-12-08T20:38:58.181Z,18.57
2022-12-08T20:41:26.025Z,23.65
2022-12-08T20:43:54.631Z,20.95
2022-12-08T20:46:22.509Z,20.35
2022-12-08T20:48:50.057Z,20.83
2022-12-08T20:51:19.901Z,21.17
2022-12-08T20:53:47.909Z,20.35
2022-12-08T20:56:17.608Z,20.12
2022-12-08T20:58:45.474Z,24.48
2022-12-08T21:01:14.522Z,22.13
2022-12-08T21:03:43.108Z,26.00
2022-12-08T21:06:11.270Z,22.20
2022-12-08T21:08:39.436Z,21.45
2022-12-08T21:11:08.254Z,25.67
2022-12-08T21:13:38.587Z,22.42
2022-12-08T21:16:06.634Z,26.33
2022-12-08T21:18:39.210Z,24.65
2022-12-08T21:21:10.984Z,23.52
2022-12-08T21:23:38.148Z,24.52
2022-12-08T21:26:14.655Z,22.58
2022-12-08T21:28:41.933Z,20.97
2022-12-08T21:31:10.443Z,21.52
2022-12-08T21:33:37.958Z,21.37
2022-12-08T21:36:11.795Z,22.73
2022-12-08T21:38:40.094Z,20.35
2022-12-08T21:41:09.757Z,23.37
2022-12-08T21:43:37.220Z,22.65
2022-12-08T21:46:04.715Z,23.55
2022-12-08T21:48:32.973Z,20.20
2022-12-08T21:51:04.983Z,25.05
2022-12-08T21:53:32.136Z,21.17
2022-12-08T21:55:59.167Z,24.52
2022-12-08T21:58:26.413Z,24.10
2022-12-08T22:00:53.574Z,22.33
2022-12-08T22:03:20.725Z,21.77
2022-12-08T22:05:47.784Z,28.30
2022-12-08T22:08:14.846Z,33.78
2022-12-08T22:10:47.340Z,30.02
2022-12-08T22:13:14.547Z,29.70
2022-12-08T22:15:41.565Z,23.95
2022-12-08T22:18:09.298Z,23.37
2022-12-08T22:20:42.341Z,23.35
2022-12-08T22:23:11.067Z,21.83
2022-12-08T22:25:38.047Z,23.48
2022-12-08T22:28:05.469Z,23.20
2022-12-08T22:30:38.677Z,21.30
2022-12-08T22:33:06.109Z,22.42
2022-12-08T22:35:32.981Z,20.83
2022-12-08T22:38:00.036Z,18.35
2022-12-08T22:40:26.904Z,20.55
2022-12-08T22:42:53.850Z,21.93
2022-12-08T22:45:20.763Z,22.85
2022-12-08T22:47:47.797Z,23.12
2022-12-08T22:50:48.717Z,24.12
2022-12-08T22:53:15.625Z,24.25
2022-12-08T22:55:44.204Z,23.97
2022-12-08T22:58:12.298Z,23.12
2022-12-08T23:00:39.601Z,24.75
2022-12-08T23:03:06.574Z,26.52
2022-12-08T23:05:35.391Z,31.23
2022-12-08T23:08:03.600Z,29.23
2022-12-08T23:10:30.743Z,26.42
2022-12-08T23:13:03.554Z,27.73
2022-12-08T23:15:31.236Z,24.55
2022-12-08T23:17:59.930Z,22.52
2022-12-08T23:20:26.770Z,19.07
2022-12-08T23:22:53.546Z,22.08
2022-12-08T23:25:20.453Z,22.80
2022-12-08T23:27:48.064Z,20.50
2022-12-08T23:30:15.293Z,20.02
2022-12-08T23:32:42.908Z,23.30
2022-12-08T23:35:10.016Z,21.80
2022-12-08T23:37:37.163Z,31.55
2022-12-08T23:40:05.506Z,29.20
2022-12-08T23:42:33.017Z,28.23
2022-12-08T23:44:59.904Z,25.17
2022-12-08T23:47:27.075Z,32.00
2022-12-08T23:49:54.280Z,28.25
2022-12-08T23:52:21.186Z,26.00
2022-12-08T23:54:50.418Z,27.60
2022-12-08T23:57:17.416Z,24.30
2022-12-08T23:59:44.595Z,25.48
